Time;durP1;ratioP1;P1;durP2;ratioP2;P2;SDS_P1;SDS_P2;PMS_P1;PMS_P2;Temp;Humidity;BMP_temperature;BMP_pressure;BME280_temperature;BME280_humidity;BME280_pressure;Samples;Min_cycle;Max_cycle;Signal;HPM_P1;HPM_P2
2022/11/06 00:02:02;;;;;;;27.10;15.70;;;;;;;7.22;100.00;99428.47;4993584;28;20203;-78
2022/11/06 00:04:32;;;;;;;25.37;15.27;;;;;;;7.21;100.00;99435.53;4994167;28;20206;-79
2022/11/06 00:06:59;;;;;;;25.57;15.07;;;;;;;7.11;100.00;99429.81;4991450;28;20195;-78
2022/11/06 00:09:27;;;;;;;20.93;13.73;;;;;;;7.06;100.00;99425.72;4996013;28;20198;-78
2022/11/06 00:11:56;;;;;;;22.60;14.37;;;;;;;6.98;100.00;99418.16;4978592;28;20230;-78
2022/11/06 00:14:25;;;;;;;22.77;14.03;;;;;;;6.86;100.00;99429.25;4992827;28;20649;-78
2022/11/06 00:17:04;;;;;;;24.27;14.27;;;;;;;6.86;100.00;99434.50;4996284;28;20226;-78
2022/11/06 00:19:32;;;;;;;23.37;14.17;;;;;;;6.84;100.00;99433.69;4987962;28;20207;-78
2022/11/06 00:22:00;;;;;;;28.30;14.40;;;;;;;6.78;100.00;99413.78;4991581;28;20198;-79
2022/11/06 00:24:30;;;;;;;23.63;15.60;;;;;;;6.70;100.00;99412.41;4994112;28;20199;-78
2022/11/06 00:26:59;;;;;;;21.90;14.87;;;;;;;6.58;100.00;99400.66;4995200;28;20206;-78
2022/11/06 00:29:27;;;;;;;25.77;16.20;;;;;;;6.74;100.00;99398.19;4973686;28;20254;-78
2022/11/06 00:31:55;;;;;;;22.63;15.20;;;;;;;6.75;100.00;99408.63;4994120;28;20242;-78
2022/11/06 00:34:25;;;;;;;24.40;15.47;;;;;;;6.69;100.00;99415.97;4992612;28;20238;-78
2022/11/06 00:36:53;;;;;;;24.63;15.17;;;;;;;6.82;100.00;99425.03;4994537;28;20257;-79
2022/11/06 00:39:22;;;;;;;26.23;16.03;;;;;;;6.61;100.00;99408.41;4991753;28;20231;-78
2022/11/06 00:41:50;;;;;;;26.37;16.27;;;;;;;6.83;100.00;99413.56;4994666;28;20250;-78
2022/11/06 00:44:18;;;;;;;26.20;16.20;;;;;;;6.86;100.00;99419.56;4990192;28;20223;-79
2022/11/06 00:46:49;;;;;;;24.63;16.70;;;;;;;6.86;100.00;99424.84;4995237;28;20203;-79
2022/11/06 00:49:18;;;;;;;26.67;17.23;;;;;;;6.56;100.00;99420.88;4915606;29;20194;-79
2022/11/06 00:51:48;;;;;;;26.00;16.97;;;;;;;6.58;100.00;99421.69;4913718;29;20253;-79
2022/11/06 00:54:17;;;;;;;25.87;17.20;;;;;;;6.56;100.00;99419.16;4916474;29;20221;-80
2022/11/06 00:56:46;;;;;;;29.27;17.00;;;;;;;6.59;100.00;99416.38;4912649;29;20238;-79
2022/11/06 00:59:14;;;;;;;28.63;17.67;;;;;;;6.73;100.00;99421.00;4914681;29;20198;-79
2022/11/06 01:01:44;;;;;;;27.27;17.53;;;;;;;6.63;100.00;99430.22;4915690;29;20193;-79
2022/11/06 01:04:15;;;;;;;30.60;18.03;;;;;;;6.54;100.00;99418.34;4912188;29;20201;-79
2022/11/06 01:06:45;;;;;;;25.90;17.67;;;;;;;6.49;100.00;99417.69;4912754;29;20241;-79
2022/11/06 01:09:18;;;;;;;30.13;18.13;;;;;;;6.46;100.00;99416.94;4915537;29;20241;-79
2022/11/06 01:11:49;;;;;;;29.87;18.43;;;;;;;6.34;100.00;99407.81;4916134;29;20241;-79
2022/11/06 01:14:40;;;;;;;29.07;19.13;;;;;;;6.40;100.00;99414.59;4976722;28;20225;-79
2022/11/06 01:17:08;;;;;;;30.50;18.30;;;;;;;6.29;100.00;99418.53;4995081;28;20199;-79
2022/11/06 01:19:36;;;;;;;30.13;19.07;;;;;;;6.35;100.00;99409.50;4991463;28;20191;-79
2022/11/06 01:22:05;;;;;;;33.13;19.30;;;;;;;6.38;100.00;99416.44;4987244;28;20269;-79
2022/11/06 01:24:35;;;;;;;28.90;18.63;;;;;;;6.35;100.00;99411.28;4990622;28;20258;-79
2022/11/06 01:27:05;;;;;;;27.63;18.13;;;;;;;6.44;100.00;99408.28;4933905;29;20617;-79
2022/11/06 01:29:53;;;;;;;31.97;18.13;;;;;;;6.49;100.00;99409.78;4934963;29;20205;-79
2022/11/06 01:32:22;;;;;;;28.80;18.37;;;;;;;6.37;100.00;99412.97;4933140;29;20197;-79
2022/11/06 01:34:51;;;;;;;29.90;18.80;;;;;;;6.40;100.00;99412.81;4933795;29;20225;-79
2022/11/06 01:37:20;;;;;;;31.03;18.73;;;;;;;6.33;100.00;99411.38;4932076;29;20205;-79
2022/11/06 01:39:51;;;;;;;32.10;19.70;;;;;;;6.19;100.00;99422.47;4934558;29;20239;-79
2022/11/06 01:42:21;;;;;;;32.10;20.47;;;;;;;6.19;100.00;99424.25;4934652;29;20205;-79
2022/11/06 01:45:30;;;;;;;32.10;19.50;;;;;;;6.26;100.00;99433.59;4952954;28;20206;-79
2022/11/06 01:47:58;;;;;;;30.63;20.07;;;;;;;6.09;100.00;99434.31;4990508;28;20257;-79
2022/11/06 01:50:27;;;;;;;30.90;20.00;;;;;;;6.23;100.00;99436.34;4990483;28;20195;-79
2022/11/06 01:52:59;;;;;;;31.87;20.53;;;;;;;6.25;100.00;99431.88;4988930;28;20230;-79
2022/11/06 01:55:33;;;;;;;32.57;20.00;;;;;;;6.26;100.00;99431.81;4992513;28;20225;-79
2022/11/06 01:58:03;;;;;;;34.43;21.20;;;;;;;6.20;100.00;99432.09;4994009;28;20191;-79
2022/11/06 02:00:31;;;;;;;29.67;19.33;;;;;;;6.25;100.00;99434.50;4990497;28;20238;-80
2022/11/06 02:03:00;;;;;;;31.93;20.30;;;;;;;6.19;100.00;99426.88;4986731;28;20207;-79
2022/11/06 02:05:29;;;;;;;29.63;19.80;;;;;;;6.20;100.00;99425.97;4990551;28;20218;-79
2022/11/06 02:07:59;;;;;;;33.27;20.10;;;;;;;6.12;100.00;99426.28;4991510;28;20227;-79
2022/11/06 02:10:29;;;;;;;32.10;19.67;;;;;;;6.15;100.00;99422.66;4993673;28;20261;-79
2022/11/06 02:13:15;;;;;;;35.90;20.37;;;;;;;6.13;100.00;99420.09;4994050;28;20198;-78
2022/11/06 02:15:48;;;;;;;32.37;20.90;;;;;;;6.15;100.00;99422.66;4976270;28;20241;-78
2022/11/06 02:18:49;;;;;;;32.40;21.00;;;;;;;6.16;100.00;99419.09;4992968;28;20245;-79
2022/11/06 02:21:41;;;;;;;37.27;21.43;;;;;;;5.97;100.00;99419.00;4986341;28;20202;-79
2022/11/06 02:24:35;;;;;;;32.73;20.77;;;;;;;5.98;100.00;99410.19;4989881;28;20199;-79
2022/11/06 02:27:10;;;;;;;34.87;20.43;;;;;;;6.11;100.00;99400.91;4990332;28;20195;-78
2022/11/06 02:29:49;;;;;;;35.60;20.90;;;;;;;6.11;100.00;99387.75;4993863;28;20190;-79
2022/11/06 02:32:25;;;;;;;31.63;19.13;;;;;;;5.84;100.00;99383.59;4989987;28;20665;-79
2022/11/06 02:34:59;;;;;;;29.23;18.97;;;;;;;5.84;100.00;99391.50;4984710;28;20226;-79
2022/11/06 02:37:33;;;;;;;31.03;19.47;;;;;;;5.73;100.00;99392.78;4943705;28;20191;-78
2022/11/06 02:40:06;;;;;;;29.80;20.17;;;;;;;5.73;100.00;99392.78;4993750;28;20195;-78
2022/11/06 02:42:41;;;;;;;30.60;20.00;;;;;;;5.68;100.00;99383.38;4991671;28;20242;-79
2022/11/06 02:45:13;;;;;;;35.93;19.20;;;;;;;5.69;100.00;99399.09;4990747;28;20195;-79
2022/11/06 02:47:47;;;;;;;34.60;19.43;;;;;;;5.78;100.00;99394.38;4987089;28;20230;-79
2022/11/06 02:50:21;;;;;;;30.93;19.03;;;;;;;5.74;100.00;99396.28;4993697;28;20229;-79
2022/11/06 02:52:58;;;;;;;29.43;18.67;;;;;;;5.83;100.00;99392.41;4993446;28;20203;-78
2022/11/06 02:55:30;;;;;;;31.40;19.47;;;;;;;5.71;100.00;99397.25;4989824;28;20226;-78
2022/11/06 02:58:06;;;;;;;30.57;19.20;;;;;;;6.05;100.00;99387.16;4990786;28;20206;-79
2022/11/06 03:00:36;;;;;;;35.53;20.80;;;;;;;5.85;100.00;99390.56;4990411;28;20249;-79
2022/11/06 03:03:06;;;;;;;30.43;18.90;;;;;;;5.94;100.00;99388.44;4990219;28;20218;-78
2022/11/06 03:05:38;;;;;;;32.67;19.40;;;;;;;5.98;100.00;99397.94;4993550;28;20261;-78
2022/11/06 03:08:14;;;;;;;32.07;19.33;;;;;;;5.96;100.00;99389.25;4993112;28;20626;-78
2022/11/06 03:10:54;;;;;;;29.73;19.67;;;;;;;5.98;100.00;99389.16;4988284;28;20322;-79
2022/11/06 03:13:32;;;;;;;35.50;19.03;;;;;;;6.00;100.00;99382.94;4987953;28;20223;-79
2022/11/06 03:16:05;;;;;;;36.97;20.40;;;;;;;5.86;100.00;99387.88;4986509;28;20218;-79
2022/11/06 03:18:37;;;;;;;29.97;19.17;;;;;;;5.89;100.00;99387.78;4955861;28;20666;-79
2022/11/06 03:21:08;;;;;;;27.57;18.63;;;;;;;5.86;100.00;99394.91;4989919;28;20219;-79
2022/11/06 03:23:44;;;;;;;32.83;18.80;;;;;;;5.62;100.00;99388.88;4991354;28;20254;-78
2022/11/06 03:26:17;;;;;;;30.00;18.70;;;;;;;5.79;100.00;99399.59;4991803;28;20231;-78
2022/11/06 03:28:54;;;;;;;34.77;20.47;;;;;;;5.64;100.00;99393.16;4898164;29;20225;-79
2022/11/06 03:31:30;;;;;;;31.23;18.50;;;;;;;5.62;100.00;99405.50;4900460;29;20233;-79
2022/11/06 03:34:03;;;;;;;33.97;20.30;;;;;;;5.67;100.00;99400.91;4897743;29;20735;-78
2022/11/06 03:36:36;;;;;;;31.60;19.17;;;;;;;5.75;100.00;99396.22;4900775;29;20325;-78
2022/11/06 03:39:09;;;;;;;32.93;18.57;;;;;;;5.85;100.00;99394.06;4899035;29;20206;-79
2022/11/06 03:41:44;;;;;;;35.13;19.73;;;;;;;5.81;100.00;99392.47;4899102;29;20247;-79
2022/11/06 03:44:18;;;;;;;33.97;19.97;;;;;;;5.90;100.00;99386.00;4898757;29;20225;-79
2022/11/06 03:46:52;;;;;;;29.83;19.07;;;;;;;5.79;100.00;99382.94;4938170;28;20229;-79
2022/11/06 03:49:29;;;;;;;32.80;19.10;;;;;;;5.72;100.00;99391.09;4995042;28;20252;-79
2022/11/06 03:52:03;;;;;;;30.47;19.43;;;;;;;5.64;100.00;99395.78;4993975;28;20239;-79
2022/11/06 03:54:35;;;;;;;32.30;18.60;;;;;;;5.65;100.00;99383.50;4996644;28;20782;-79
2022/11/06 03:57:09;;;;;;;29.30;19.80;;;;;;;5.60;100.00;99390.72;4992887;28;20245;-79
2022/11/06 03:59:44;;;;;;;31.20;19.43;;;;;;;5.58;100.00;99392.53;4996258;28;20199;-79
2022/11/06 04:02:17;;;;;;;33.23;19.37;;;;;;;5.58;100.00;99390.75;4993767;28;20233;-79
2022/11/06 04:04:51;;;;;;;31.27;18.70;;;;;;;5.47;100.00;99385.09;4994893;28;20202;-79
2022/11/06 04:07:23;;;;;;;29.73;18.87;;;;;;;5.49;100.00;99391.13;4996378;28;20191;-79
2022/11/06 04:15:50;;;;;;;29.80;16.37;;;;;;;5.99;100.00;99393.53;4996444;28;20272;-79
2022/11/06 04:18:20;;;;;;;29.27;18.40;;;;;;;5.87;100.00;99396.63;4992078;28;20285;-79
2022/11/06 04:26:54;;;;;;;30.03;18.47;;;;;;;5.86;100.00;99369.47;4995151;28;20717;-79
2022/11/06 04:29:34;;;;;;;24.57;17.10;;;;;;;5.91;100.00;99369.34;4992106;28;20227;-79
2022/11/06 04:32:11;;;;;;;30.37;17.80;;;;;;;5.74;100.00;99362.09;4995997;28;20198;-78
2022/11/06 04:34:46;;;;;;;31.80;18.30;;;;;;;5.87;100.00;99359.81;4994385;28;20215;-79
2022/11/06 04:37:21;;;;;;;32.20;18.03;;;;;;;5.90;100.00;99367.59;4995975;28;20253;-79
2022/11/06 04:39:57;;;;;;;29.00;18.40;;;;;;;5.78;100.00;99363.69;4993384;28;20258;-79
2022/11/06 04:42:32;;;;;;;29.73;17.53;;;;;;;5.85;100.00;99367.78;4994550;28;20202;-78
2022/11/06 04:45:05;;;;;;;28.37;18.20;;;;;;;5.69;100.00;99358.78;4995719;28;20270;-79
2022/11/06 04:47:37;;;;;;;28.63;18.03;;;;;;;5.74;100.00;99365.59;4994692;28;20245;-79
2022/11/06 04:50:10;;;;;;;30.10;17.70;;;;;;;5.72;100.00;99367.44;4995282;28;20661;-78
2022/11/06 04:52:39;;;;;;;30.40;17.70;;;;;;;5.78;100.00;99365.44;4995597;28;20219;-79
2022/11/06 04:55:08;;;;;;;34.27;17.20;;;;;;;5.84;100.00;99381.84;4993330;28;20218;-79
2022/11/06 04:57:36;;;;;;;33.17;18.33;;;;;;;5.86;100.00;99379.13;4958817;28;20199;-79
2022/11/06 05:00:07;;;;;;;32.87;18.40;;;;;;;5.90;100.00;99376.38;4994139;28;20206;-79
2022/11/06 05:02:37;;;;;;;34.57;18.80;;;;;;;6.00;100.00;99385.59;4991600;28;20234;-79
2022/11/06 05:05:09;;;;;;;30.20;19.50;;;;;;;6.06;100.00;99380.97;4991060;28;20203;-79
2022/11/06 05:07:40;;;;;;;31.03;19.00;;;;;;;5.95;100.00;99387.53;4994841;28;20223;-79
2022/11/06 05:10:09;;;;;;;28.70;18.63;;;;;;;6.08;100.00;99390.53;4991098;28;20661;-79
2022/11/06 05:12:38;;;;;;;31.23;20.00;;;;;;;6.05;100.00;99392.41;4991631;28;20226;-79
2022/11/06 05:15:08;;;;;;;34.17;20.40;;;;;;;6.03;100.00;99388.06;4995297;28;20211;-79
2022/11/06 05:17:39;;;;;;;36.57;21.77;;;;;;;6.03;100.00;99376.69;4988357;28;20227;-79
2022/11/06 05:20:08;;;;;;;38.73;21.73;;;;;;;5.87;100.00;99375.59;4994959;28;20196;-79
2022/11/06 05:25:31;;;;;;;38.57;21.67;;;;;;;5.84;100.00;99373.09;4994748;28;20199;-79
2022/11/06 05:28:04;;;;;;;37.30;22.40;;;;;;;5.86;100.00;99366.84;4992326;28;20666;-79
2022/11/06 05:30:34;;;;;;;41.00;22.90;;;;;;;5.95;100.00;99382.28;4994880;28;20242;-79
2022/11/06 05:33:05;;;;;;;41.53;21.00;;;;;;;6.00;100.00;99379.47;4993843;28;20651;-79
2022/11/06 05:35:34;;;;;;;42.20;21.57;;;;;;;5.94;100.00;99375.31;4992045;28;20227;-79
2022/11/06 05:38:02;;;;;;;35.70;21.40;;;;;;;5.99;100.00;99369.88;4966306;28;20246;-79
2022/11/06 05:40:31;;;;;;;37.23;22.17;;;;;;;5.95;100.00;99366.50;4973269;28;20210;-79
2022/11/06 05:43:02;;;;;;;35.00;21.10;;;;;;;5.93;100.00;99370.13;4970091;28;20196;-79
2022/11/06 05:45:30;;;;;;;37.40;21.27;;;;;;;5.90;100.00;99360.59;4973097;28;20227;-79
2022/11/06 05:48:00;;;;;;;39.63;22.37;;;;;;;5.85;100.00;99353.78;4971914;28;20200;-79
2022/11/06 05:50:30;;;;;;;37.47;22.63;;;;;;;6.01;100.00;99349.63;4970111;28;20638;-79
2022/11/06 05:53:03;;;;;;;38.63;22.17;;;;;;;5.99;100.00;99340.97;4967122;28;20231;-79
2022/11/06 05:55:31;;;;;;;40.27;23.83;;;;;;;5.90;100.00;99341.31;4977427;28;20222;-79
2022/11/06 05:57:59;;;;;;;37.40;23.43;;;;;;;5.99;100.00;99340.97;4994401;28;20191;-79
2022/11/06 06:00:30;;;;;;;39.40;23.77;;;;;;;6.02;100.00;99341.66;4989755;28;20195;-79
2022/11/06 06:02:58;;;;;;;40.70;23.47;;;;;;;5.78;100.00;99340.03;4989086;28;20266;-79
2022/11/06 06:05:27;;;;;;;39.87;23.63;;;;;;;5.86;100.00;99331.81;4994901;28;20542;-79
2022/11/06 06:07:56;;;;;;;42.47;23.13;;;;;;;5.96;100.00;99333.19;4994589;28;20230;-79
2022/11/06 06:10:25;;;;;;;39.13;23.37;;;;;;;6.06;100.00;99328.38;4991990;28;20250;-79
2022/11/06 06:12:53;;;;;;;41.17;24.33;;;;;;;5.97;100.00;99333.09;4990063;28;20268;-80
2022/11/06 06:15:22;;;;;;;39.90;22.77;;;;;;;5.90;100.00;99334.31;4992796;28;20197;-79
2022/11/06 06:17:50;;;;;;;40.50;22.80;;;;;;;6.05;100.00;99330.16;4991570;28;20214;-79
2022/11/06 06:20:19;;;;;;;42.70;22.83;;;;;;;6.13;100.00;99325.44;4991034;28;20281;-79
2022/11/06 06:22:54;;;;;;;39.87;22.63;;;;;;;6.01;100.00;99318.06;4991658;28;20207;-79
2022/11/06 06:25:24;;;;;;;39.90;23.50;;;;;;;5.92;100.00;99315.84;4993995;28;20237;-79
2022/11/06 06:27:53;;;;;;;35.20;22.33;;;;;;;5.88;100.00;99308.94;4972182;28;20199;-79
2022/11/06 06:30:23;;;;;;;34.87;22.30;;;;;;;5.83;100.00;99305.69;4991926;28;20202;-79
2022/11/06 06:32:52;;;;;;;39.90;23.93;;;;;;;5.71;100.00;99289.50;4992592;28;20191;-79
2022/11/06 06:35:20;;;;;;;39.20;22.97;;;;;;;5.81;100.00;99292.63;4993318;28;20661;-79
2022/11/06 06:37:53;;;;;;;37.30;21.70;;;;;;;5.85;100.00;99288.91;4993419;28;20203;-79
2022/11/06 06:40:23;;;;;;;40.73;22.63;;;;;;;5.78;100.00;99294.50;4991705;28;20281;-79
2022/11/06 06:42:57;;;;;;;35.37;21.93;;;;;;;5.73;100.00;99289.44;4988190;28;20207;-79
2022/11/06 06:45:28;;;;;;;41.73;22.87;;;;;;;5.64;100.00;99295.09;4993235;28;20205;-79
2022/11/06 06:48:04;;;;;;;37.37;21.60;;;;;;;5.58;100.00;99285.69;4991101;28;20203;-78
2022/11/06 06:50:34;;;;;;;44.67;23.97;;;;;;;5.61;100.00;99297.84;4993316;28;20233;-79
2022/11/06 06:53:03;;;;;;;37.13;22.27;;;;;;;5.59;100.00;99299.66;4993668;28;20195;-79
2022/11/06 06:55:34;;;;;;;38.70;23.60;;;;;;;5.57;100.00;99291.00;4991279;28;20226;-79
2022/11/06 06:58:03;;;;;;;37.27;21.83;;;;;;;5.57;100.00;99283.13;4992285;28;20218;-79
2022/11/06 07:00:31;;;;;;;37.47;23.40;;;;;;;5.53;100.00;99294.69;4993608;28;20270;-79
2022/11/06 07:03:01;;;;;;;39.77;22.90;;;;;;;5.60;100.00;99288.25;4970148;28;20651;-79
2022/11/06 07:05:30;;;;;;;38.17;22.63;;;;;;;5.57;100.00;99283.97;4973607;28;20188;-79
2022/11/06 07:08:01;;;;;;;33.90;20.93;;;;;;;5.79;100.00;99294.47;4967612;28;20200;-79
2022/11/06 07:10:31;;;;;;;34.57;21.10;;;;;;;5.68;100.00;99284.38;4970109;28;20200;-79
2022/11/06 07:13:03;;;;;;;35.23;21.33;;;;;;;5.74;100.00;99284.13;4973525;28;20196;-79
2022/11/06 07:15:32;;;;;;;41.17;22.43;;;;;;;5.63;100.00;99281.09;4970838;28;20231;-80
2022/11/06 07:18:05;;;;;;;34.70;20.83;;;;;;;5.87;100.00;99283.59;4972150;28;20249;-79
2022/11/06 07:20:34;;;;;;;37.47;21.07;;;;;;;5.74;100.00;99276.25;4978397;28;20201;-79
2022/11/06 07:23:07;;;;;;;37.20;20.67;;;;;;;5.77;100.00;99277.03;4995931;28;20231;-79
2022/11/06 07:25:38;;;;;;;31.40;19.60;;;;;;;5.84;100.00;99283.72;4996292;28;20190;-79
2022/11/06 07:28:08;;;;;;;29.50;18.40;;;;;;;5.84;100.00;99278.47;4997228;28;20199;-79
2022/11/06 07:30:37;;;;;;;24.57;15.27;;;;;;;5.77;100.00;99280.50;4997024;28;20230;-79
2022/11/06 07:33:06;;;;;;;24.27;15.03;;;;;;;5.77;100.00;99277.88;4988630;28;20207;-79
2022/11/06 07:35:35;;;;;;;27.67;15.00;;;;;;;5.72;100.00;99270.19;4994097;28;20273;-79
2022/11/06 07:38:05;;;;;;;24.37;14.70;;;;;;;5.67;100.00;99279.19;4993888;28;20277;-79
2022/11/06 07:40:36;;;;;;;24.03;12.77;;;;;;;5.82;100.00;99283.81;4996699;28;20238;-79
2022/11/06 07:43:05;;;;;;;23.87;13.60;;;;;;;5.76;100.00;99286.69;4992953;28;20218;-79
2022/11/06 07:45:36;;;;;;;20.23;12.80;;;;;;;5.77;100.00;99285.75;4996845;28;20195;-79
2022/11/06 07:48:07;;;;;;;26.07;14.90;;;;;;;5.77;100.00;99282.28;4963642;28;20219;-79
2022/11/06 07:50:35;;;;;;;24.97;14.73;;;;;;;5.81;100.00;99283.88;4971230;28;20240;-79
2022/11/06 07:53:06;;;;;;;29.27;17.43;;;;;;;5.79;100.00;99281.31;4975262;28;20398;-79
2022/11/06 07:55:35;;;;;;;28.20;16.03;;;;;;;5.91;100.00;99283.44;4972756;28;20699;-79
2022/11/06 07:58:09;;;;;;;24.53;14.87;;;;;;;5.99;100.00;99273.47;4973073;28;20226;-79
2022/11/06 08:00:39;;;;;;;24.27;15.27;;;;;;;6.00;100.00;99279.56;4966416;28;20357;-79
2022/11/06 08:03:08;;;;;;;24.30;16.00;;;;;;;6.08;100.00;99284.47;4973531;28;20203;-79
2022/11/06 08:05:37;;;;;;;28.57;16.10;;;;;;;6.03;100.00;99285.53;4973443;28;20204;-79
2022/11/06 08:08:05;;;;;;;29.77;17.13;;;;;;;6.17;100.00;99274.41;4975309;28;20203;-79
2022/11/06 08:10:36;;;;;;;25.07;15.63;;;;;;;6.14;100.00;99266.66;4992470;28;20195;-79
2022/11/06 08:13:05;;;;;;;26.27;16.07;;;;;;;6.31;100.00;99264.13;4995276;28;20192;-79
2022/11/06 08:15:33;;;;;;;29.20;17.43;;;;;;;6.31;100.00;99264.13;4993274;28;20203;-79
2022/11/06 08:18:03;;;;;;;25.00;16.07;;;;;;;6.22;100.00;99263.69;4994903;28;20736;-79
2022/11/06 08:20:31;;;;;;;28.80;17.33;;;;;;;5.96;100.00;99270.94;4995153;28;20526;-79
2022/11/06 08:23:00;;;;;;;26.93;16.53;;;;;;;6.21;100.00;99268.09;4994503;28;20206;-79
2022/11/06 08:25:29;;;;;;;25.03;16.50;;;;;;;6.31;100.00;99265.91;4997367;28;20199;-79
2022/11/06 08:27:59;;;;;;;24.93;16.40;;;;;;;6.21;100.00;99268.09;4940300;29;20212;-79
2022/11/06 08:30:32;;;;;;;30.10;16.43;;;;;;;6.23;100.00;99268.03;4937480;29;20669;-79
2022/11/06 08:33:02;;;;;;;28.07;15.70;;;;;;;6.21;100.00;99265.47;4934197;29;20205;-79
2022/11/06 08:35:34;;;;;;;27.00;15.87;;;;;;;6.23;100.00;99257.50;4920726;29;20241;-79
2022/11/06 08:38:02;;;;;;;26.50;16.73;;;;;;;6.37;100.00;99264.75;4935980;29;20244;-79
2022/11/06 08:40:32;;;;;;;27.80;17.27;;;;;;;6.42;100.00;99261.00;4934637;29;20201;-79
2022/11/06 08:43:02;;;;;;;27.23;16.87;;;;;;;6.41;100.00;99263.72;4934399;29;20213;-79
2022/11/06 08:45:31;;;;;;;28.73;17.17;;;;;;;6.51;100.00;99267.63;4949677;28;20199;-79
2022/11/06 08:48:02;;;;;;;26.47;15.53;;;;;;;6.45;100.00;99267.91;4994571;28;20246;-79
2022/11/06 08:50:32;;;;;;;29.33;17.43;;;;;;;6.38;100.00;99263.88;4971608;28;20231;-79
2022/11/06 08:53:03;;;;;;;26.80;17.03;;;;;;;6.56;100.00;99265.63;4971640;28;20223;-79
2022/11/06 08:55:31;;;;;;;26.47;16.30;;;;;;;6.55;100.00;99261.31;4974265;28;20286;-79
2022/11/06 08:58:00;;;;;;;25.07;16.70;;;;;;;6.57;100.00;99257.69;4974165;28;20227;-79
2022/11/06 09:00:29;;;;;;;29.47;16.30;;;;;;;6.69;100.00;99248.38;4968921;28;20223;-79
2022/11/06 09:02:58;;;;;;;27.40;16.33;;;;;;;6.65;100.00;99233.63;4966449;28;20246;-79
2022/11/06 09:05:29;;;;;;;23.20;15.17;;;;;;;6.75;100.00;99237.53;4971140;28;20227;-79
2022/11/06 09:08:02;;;;;;;25.53;15.50;;;;;;;6.87;100.00;99222.97;4956369;28;20199;-79
2022/11/06 09:10:30;;;;;;;27.70;15.13;;;;;;;7.08;100.00;99228.97;4974083;28;20195;-79
2022/11/06 09:12:58;;;;;;;25.20;14.43;;;;;;;7.23;100.00;99228.19;4974153;28;20745;-79
2022/11/06 09:15:28;;;;;;;26.57;16.07;;;;;;;7.32;100.00;99214.56;4983187;28;20249;-79
2022/11/06 09:17:56;;;;;;;27.23;15.13;;;;;;;7.47;100.00;99213.81;4993587;28;20222;-79
2022/11/06 09:20:26;;;;;;;22.23;14.87;;;;;;;7.58;100.00;99210.63;4994852;28;20359;-79
2022/11/06 09:22:55;;;;;;;23.13;13.20;;;;;;;7.42;100.00;99201.78;4994929;28;20195;-79
2022/11/06 09:25:25;;;;;;;16.97;12.07;;;;;;;7.48;100.00;99204.13;4989997;28;20211;-79
2022/11/06 09:27:54;;;;;;;14.93;10.90;;;;;;;7.84;100.00;99193.50;4994696;28;20198;-79
2022/11/06 09:30:28;;;;;;;18.20;11.97;;;;;;;7.79;100.00;99190.22;4994654;28;20202;-79
2022/11/06 09:32:58;;;;;;;16.77;10.77;;;;;;;7.87;100.00;99187.19;4953410;28;20253;-79
2022/11/06 09:35:28;;;;;;;15.97;10.40;;;;;;;7.88;100.00;99191.53;4989587;28;20357;-79
2022/11/06 09:38:02;;;;;;;17.07;9.80;;;;;;;8.09;100.00;99173.72;4973172;28;20247;-79
2022/11/06 09:40:35;;;;;;;13.63;10.10;;;;;;;8.18;100.00;99167.94;4968538;28;20249;-79
2022/11/06 09:43:24;;;;;;;17.60;11.37;;;;;;;8.16;100.00;99159.25;4969431;28;20196;-79
2022/11/06 09:46:21;;;;;;;15.03;10.10;;;;;;;8.02;100.00;99145.03;4917391;29;20213;-79
2022/11/06 09:48:55;;;;;;;14.13;9.70;;;;;;;8.09;100.00;99139.41;4912207;29;20210;-79
2022/11/06 09:51:32;;;;;;;12.53;10.20;;;;;;;8.14;100.00;99137.41;4912881;29;20261;-79
2022/11/06 09:54:07;;;;;;;12.67;9.10;;;;;;;8.18;100.00;99133.66;4913934;29;20281;-79
2022/11/06 09:56:41;;;;;;;13.00;9.40;;;;;;;8.10;100.00;99114.75;4913738;29;20278;-79
2022/11/06 09:59:14;;;;;;;16.30;9.50;;;;;;;8.25;100.00;99113.91;4915457;29;20229;-79
2022/11/06 10:01:48;;;;;;;13.07;8.50;;;;;;;8.58;100.00;99114.69;4915351;29;20213;-79
2022/11/06 10:04:36;;;;;;;14.17;8.43;;;;;;;8.70;100.00;99104.38;4963424;28;20217;-79
2022/11/06 10:07:04;;;;;;;12.90;8.80;;;;;;;9.03;100.00;99088.38;4991394;28;20191;-79
2022/11/06 10:09:34;;;;;;;11.73;8.30;;;;;;;9.11;100.00;99086.13;4994360;28;20201;-79
2022/11/06 10:12:13;;;;;;;12.37;8.60;;;;;;;9.37;100.00;99081.94;4991505;28;20250;-79
2022/11/06 10:15:04;;;;;;;12.33;7.80;;;;;;;9.48;100.00;99068.06;4988842;28;20257;-79
2022/11/06 10:17:47;;;;;;;12.30;7.93;;;;;;;9.38;100.00;99063.34;4990284;28;20205;-79
2022/11/06 10:20:20;;;;;;;12.60;7.43;;;;;;;9.26;100.00;99058.75;4978192;28;20233;-79
2022/11/06 10:23:03;;;;;;;9.13;7.13;;;;;;;9.59;100.00;99049.75;4993629;28;20269;-79
2022/11/06 10:25:45;;;;;;;11.43;7.83;;;;;;;9.86;100.00;99037.44;4995480;28;20199;-79
2022/11/06 10:28:44;;;;;;;9.03;7.90;;;;;;;9.59;100.00;99028.59;4992298;28;20203;-79
2022/11/06 10:31:23;;;;;;;15.67;9.60;;;;;;;10.07;100.00;99024.66;4994933;28;20226;-79
2022/11/06 10:33:59;;;;;;;12.43;7.43;;;;;;;9.98;100.00;99020.78;4972947;28;20199;-79
2022/11/06 10:36:35;;;;;;;12.60;6.80;;;;;;;10.33;100.00;99023.00;4921535;28;20322;-80
2022/11/06 10:39:10;;;;;;;10.23;7.13;;;;;;;10.46;100.00;99013.31;4969841;28;20227;-78
2022/11/06 10:41:41;;;;;;;8.47;6.53;;;;;;;10.85;100.00;99007.16;4970231;28;20195;-79
2022/11/06 10:44:19;;;;;;;10.40;6.60;;;;;;;10.85;100.00;99009.78;4967795;28;20236;-80
2022/11/06 10:46:52;;;;;;;10.23;6.10;;;;;;;11.10;100.00;99005.50;4933944;29;20204;-79
2022/11/06 10:49:32;;;;;;;10.27;8.00;;;;;;;10.98;100.00;99008.94;4932402;29;20236;-79
2022/11/06 10:52:17;;;;;;;11.77;6.17;;;;;;;10.68;100.00;99011.88;4922540;29;20290;-79
2022/11/06 10:55:01;;;;;;;9.13;5.80;;;;;;;10.82;100.00;98999.41;4951706;28;20231;-80
2022/11/06 10:57:41;;;;;;;8.13;5.47;;;;;;;11.06;100.00;99001.34;4950767;29;20251;-80
2022/11/06 11:00:15;;;;;;;11.07;5.20;;;;;;;10.83;100.00;99005.56;4948318;29;20232;-80
2022/11/06 11:02:48;;;;;;;8.33;5.03;;;;;;;11.30;100.00;98991.69;4954949;28;20295;-79
2022/11/06 11:05:22;;;;;;;8.43;5.53;;;;;;;10.80;100.00;99000.44;4981047;28;20187;-80
2022/11/06 11:07:51;;;;;;;9.50;4.93;;;;;;;11.21;100.00;98989.69;4989119;28;20191;-80
2022/11/06 11:10:29;;;;;;;9.07;4.97;;;;;;;10.89;100.00;98987.41;4988179;28;20202;-81
2022/11/06 11:12:59;;;;;;;6.93;5.10;;;;;;;11.28;100.00;98967.06;4993321;28;20194;-79
2022/11/06 11:15:43;;;;;;;10.83;5.53;;;;;;;11.54;100.00;98961.75;4990597;28;20210;-80
2022/11/06 11:18:17;;;;;;;6.83;5.03;;;;;;;11.63;100.00;98958.44;4991939;28;20310;-79
2022/11/06 11:20:48;;;;;;;5.80;4.50;;;;;;;11.64;100.00;98946.88;4990436;28;20236;-80
2022/11/06 11:23:20;;;;;;;8.57;5.33;;;;;;;11.78;100.00;98938.78;4990469;28;20673;-80
2022/11/06 11:25:52;;;;;;;6.83;5.10;;;;;;;11.97;100.00;98938.31;4993176;28;20245;-80
2022/11/06 11:28:29;;;;;;;7.83;4.90;;;;;;;11.64;100.00;98925.66;4990175;28;20203;-80
2022/11/06 11:31:06;;;;;;;7.77;4.80;;;;;;;11.91;100.00;98917.53;4988032;28;20211;-79
2022/11/06 11:33:35;;;;;;;9.70;4.90;;;;;;;12.04;100.00;98902.38;4991909;28;20249;-80
2022/11/06 11:36:07;;;;;;;6.47;4.60;;;;;;;11.94;100.00;98904.03;4993245;28;20227;-80
2022/11/06 11:38:39;;;;;;;7.37;4.47;;;;;;;11.61;100.00;98894.88;4993328;28;20223;-79
2022/11/06 11:41:14;;;;;;;4.97;4.10;;;;;;;11.91;100.00;98883.88;4987885;28;20199;-80
2022/11/06 11:43:43;;;;;;;9.73;4.37;;;;;;;12.10;100.00;98872.72;4993351;28;20202;-80
2022/11/06 11:46:20;;;;;;;5.07;4.10;;;;;;;12.55;100.00;98875.53;4990227;28;20238;-80
2022/11/06 11:48:52;;;;;;;5.87;4.00;;;;;;;12.89;100.00;98871.09;4993315;28;20199;-79
2022/11/06 11:51:43;;;;;;;5.03;4.03;;;;;;;12.54;100.00;98873.81;4996660;28;20223;-80
2022/11/06 11:54:20;;;;;;;6.20;4.63;;;;;;;12.83;100.00;98855.63;4996986;28;20242;-80
2022/11/06 11:56:52;;;;;;;4.90;4.40;;;;;;;12.85;100.00;98849.25;4993545;28;20203;-80
2022/11/06 11:59:42;;;;;;;6.37;3.90;;;;;;;13.27;100.00;98845.97;4993682;28;20297;-80